sensor_id;sensor_type;location;lat;lon;timestamp;pressure;altitude;pressure_sealevel;temperature;humidity
64876;BME280;51369;49.862;9.908;2022-12-18T00:03:53;99643.44;;;-9.31;74.39
64876;BME280;51369;49.862;9.908;2022-12-18T00:06:19;99642.53;;;-9.32;74.08
64876;BME280;51369;49.862;9.908;2022-12-18T00:08:45;99638.84;;;-9.35;74.24
64876;BME280;51369;49.862;9.908;2022-12-18T00:11:19;99642.19;;;-9.38;74.56
64876;BME280;51369;49.862;9.908;2022-12-18T00:13:46;99641.22;;;-9.40;74.04
64876;BME280;51369;49.862;9.908;2022-12-18T00:16:14;99650.78;;;-9.40;74.29
64876;BME280;51369;49.862;9.908;2022-12-18T00:18:40;99637.78;;;-9.39;74.32
64876;BME280;51369;49.862;9.908;2022-12-18T00:21:08;99644.91;;;-9.36;74.57
64876;BME280;51369;49.862;9.908;2022-12-18T00:23:35;99650.22;;;-9.35;74.52
64876;BME280;51369;49.862;9.908;2022-12-18T00:26:06;99659.03;;;-9.33;74.65
64876;BME280;51369;49.862;9.908;2022-12-18T00:28:32;99668.69;;;-9.32;74.45
64876;BME280;51369;49.862;9.908;2022-12-18T00:31:07;99666.16;;;-9.30;74.53
64876;BME280;51369;49.862;9.908;2022-12-18T00:33:33;99666.25;;;-9.29;74.46
64876;BME280;51369;49.862;9.908;2022-12-18T00:38:27;99674.44;;;-9.23;74.54
64876;BME280;51369;49.862;9.908;2022-12-18T00:40:52;99676.31;;;-9.20;74.76
64876;BME280;51369;49.862;9.908;2022-12-18T00:43:18;99672.97;;;-9.17;75.32
64876;BME280;51369;49.862;9.908;2022-12-18T00:45:43;99663.56;;;-9.14;74.97
64876;BME280;51369;49.862;9.908;2022-12-18T00:48:09;99661.94;;;-9.12;74.96
64876;BME280;51369;49.862;9.908;2022-12-18T00:50:34;99660.31;;;-9.10;75.00
64876;BME280;51369;49.862;9.908;2022-12-18T00:53:00;99672.56;;;-9.09;75.44
64876;BME280;51369;49.862;9.908;2022-12-18T00:55:25;99662.09;;;-9.09;74.56
64876;BME280;51369;49.862;9.908;2022-12-18T00:57:51;99671.75;;;-9.08;74.72
64876;BME280;51369;49.862;9.908;2022-12-18T01:00:17;99679.53;;;-9.09;74.84
64876;BME280;51369;49.862;9.908;2022-12-18T01:02:43;99678.63;;;-9.10;74.61
64876;BME280;51369;49.862;9.908;2022-12-18T01:05:10;99673.38;;;-9.10;74.77
64876;BME280;51369;49.862;9.908;2022-12-18T01:07:36;99680.34;;;-9.10;74.74
64876;BME280;51369;49.862;9.908;2022-12-18T01:10:02;99691.63;;;-9.11;74.15
64876;BME280;51369;49.862;9.908;2022-12-18T01:12:28;99699.28;;;-9.14;74.17
64876;BME280;51369;49.862;9.908;2022-12-18T01:14:53;99700.94;;;-9.16;73.64
64876;BME280;51369;49.862;9.908;2022-12-18T01:17:20;99706.97;;;-9.17;73.93
64876;BME280;51369;49.862;9.908;2022-12-18T01:19:45;99706.06;;;-9.18;74.14
64876;BME280;51369;49.862;9.908;2022-12-18T01:22:10;99697.31;;;-9.18;74.47
64876;BME280;51369;49.862;9.908;2022-12-18T01:24:36;99689.31;;;-9.22;73.67
64876;BME280;51369;49.862;9.908;2022-12-18T01:27:02;99689.31;;;-9.22;74.04
64876;BME280;51369;49.862;9.908;2022-12-18T01:29:27;99691.09;;;-9.21;74.38
64876;BME280;51369;49.862;9.908;2022-12-18T01:31:55;99693.81;;;-9.19;73.99
64876;BME280;51369;49.862;9.908;2022-12-18T01:34:22;99696.44;;;-9.19;74.02
64876;BME280;51369;49.862;9.908;2022-12-18T01:36:48;99699.13;;;-9.17;74.54
64876;BME280;51369;49.862;9.908;2022-12-18T01:39:15;99703.53;;;-9.16;74.11
64876;BME280;51369;49.862;9.908;2022-12-18T01:41:41;99708.84;;;-9.15;74.05
64876;BME280;51369;49.862;9.908;2022-12-18T01:47:45;99709.94;;;-9.11;74.58
64876;BME280;51369;49.862;9.908;2022-12-18T01:50:21;99701.25;;;-9.10;74.63
64876;BME280;51369;49.862;9.908;2022-12-18T01:53:10;99702.09;;;-9.11;74.29
64876;BME280;51369;49.862;9.908;2022-12-18T01:55:40;99702.09;;;-9.11;74.53
64876;BME280;51369;49.862;9.908;2022-12-18T01:58:09;99701.19;;;-9.12;74.48
64876;BME280;51369;49.862;9.908;2022-12-18T02:00:34;99694.16;;;-9.13;74.63
64876;BME280;51369;49.862;9.908;2022-12-18T02:03:00;99698.47;;;-9.13;74.84
64876;BME280;51369;49.862;9.908;2022-12-18T02:08:19;99702.63;;;-9.17;74.50
64876;BME280;51369;49.862;9.908;2022-12-18T02:13:36;99698.22;;;-9.18;74.91
64876;BME280;51369;49.862;9.908;2022-12-18T02:16:24;99700.09;;;-9.15;74.61
64876;BME280;51369;49.862;9.908;2022-12-18T02:18:57;99699.13;;;-9.17;74.74
64876;BME280;51369;49.862;9.908;2022-12-18T02:24:21;99686.78;;;-9.20;74.79
64876;BME280;51369;49.862;9.908;2022-12-18T02:27:09;99686.88;;;-9.18;74.63
64876;BME280;51369;49.862;9.908;2022-12-18T02:29:40;99685.06;;;-9.20;74.61
64876;BME280;51369;49.862;9.908;2022-12-18T02:32:17;99686.69;;;-9.22;74.36
64876;BME280;51369;49.862;9.908;2022-12-18T02:34:45;99671.72;;;-9.24;74.71
64876;BME280;51369;49.862;9.908;2022-12-18T02:37:16;99680.22;;;-9.28;74.50
64876;BME280;51369;49.862;9.908;2022-12-18T02:39:44;99681.03;;;-9.29;74.49
64876;BME280;51369;49.862;9.908;2022-12-18T02:42:13;99675.72;;;-9.31;74.61
64876;BME280;51369;49.862;9.908;2022-12-18T02:44:50;99687.00;;;-9.32;74.63
64876;BME280;51369;49.862;9.908;2022-12-18T02:47:22;99698.25;;;-9.33;74.74
64876;BME280;51369;49.862;9.908;2022-12-18T03:00:39;99699.25;;;-9.31;75.24
64876;BME280;51369;49.862;9.908;2022-12-18T03:03:16;99693.03;;;-9.33;74.88
64876;BME280;51369;49.862;9.908;2022-12-18T03:05:53;99709.53;;;-9.34;74.88
64876;BME280;51369;49.862;9.908;2022-12-18T03:08:24;99705.94;;;-9.36;75.09
64876;BME280;51369;49.862;9.908;2022-12-18T03:11:13;99715.41;;;-9.38;75.52
64876;BME280;51369;49.862;9.908;2022-12-18T03:13:43;99719.91;;;-9.35;75.00
64876;BME280;51369;49.862;9.908;2022-12-18T03:16:15;99706.03;;;-9.34;75.39
64876;BME280;51369;49.862;9.908;2022-12-18T03:18:52;99703.41;;;-9.34;75.41
64876;BME280;51369;49.862;9.908;2022-12-18T03:21:23;99707.75;;;-9.35;75.42
64876;BME280;51369;49.862;9.908;2022-12-18T03:23:52;99711.16;;;-9.36;75.27
64876;BME280;51369;49.862;9.908;2022-12-18T03:26:24;99711.16;;;-9.36;75.30
64876;BME280;51369;49.862;9.908;2022-12-18T03:28:58;99702.34;;;-9.38;75.21
64876;BME280;51369;49.862;9.908;2022-12-18T03:31:27;99704.88;;;-9.39;75.45
64876;BME280;51369;49.862;9.908;2022-12-18T03:33:58;99714.34;;;-9.41;74.86
64876;BME280;51369;49.862;9.908;2022-12-18T03:36:32;99715.88;;;-9.45;75.42
64876;BME280;51369;49.862;9.908;2022-12-18T03:38:57;99721.00;;;-9.46;75.54
64876;BME280;51369;49.862;9.908;2022-12-18T03:41:42;99713.09;;;-9.48;75.74
64876;BME280;51369;49.862;9.908;2022-12-18T03:44:32;99707.94;;;-9.46;75.17
64876;BME280;51369;49.862;9.908;2022-12-18T03:47:06;99711.53;;;-9.44;75.44
64876;BME280;51369;49.862;9.908;2022-12-18T03:49:42;99705.50;;;-9.43;75.50
64876;BME280;51369;49.862;9.908;2022-12-18T03:52:15;99712.34;;;-9.45;75.35
64876;BME280;51369;49.862;9.908;2022-12-18T03:54:44;99707.84;;;-9.48;75.37
64876;BME280;51369;49.862;9.908;2022-12-18T03:57:19;99709.47;;;-9.50;75.13
64876;BME280;51369;49.862;9.908;2022-12-18T03:59:50;99702.38;;;-9.53;74.92
64876;BME280;51369;49.862;9.908;2022-12-18T04:02:22;99710.22;;;-9.53;75.06
64876;BME280;51369;49.862;9.908;2022-12-18T04:04:51;99712.91;;;-9.51;75.22
64876;BME280;51369;49.862;9.908;2022-12-18T04:07:19;99709.41;;;-9.52;75.63
64876;BME280;51369;49.862;9.908;2022-12-18T04:09:48;99701.63;;;-9.50;75.47
64876;BME280;51369;49.862;9.908;2022-12-18T04:12:14;99700.81;;;-9.49;75.20
64876;BME280;51369;49.862;9.908;2022-12-18T04:14:39;99692.97;;;-9.49;75.32
64876;BME280;51369;49.862;9.908;2022-12-18T04:17:07;99699.94;;;-9.49;75.21
64876;BME280;51369;49.862;9.908;2022-12-18T04:19:33;99712.91;;;-9.51;75.26
64876;BME280;51369;49.862;9.908;2022-12-18T04:22:00;99703.25;;;-9.52;75.17
64876;BME280;51369;49.862;9.908;2022-12-18T04:24:26;99700.56;;;-9.54;74.85
64876;BME280;51369;49.862;9.908;2022-12-18T04:27:02;99711.91;;;-9.53;75.18
64876;BME280;51369;49.862;9.908;2022-12-18T04:29:32;99710.13;;;-9.54;75.20
64876;BME280;51369;49.862;9.908;2022-12-18T04:31:58;99703.09;;;-9.55;75.16
64876;BME280;51369;49.862;9.908;2022-12-18T04:34:25;99709.94;;;-9.57;75.07
64876;BME280;51369;49.862;9.908;2022-12-18T04:36:52;99714.28;;;-9.58;74.96
64876;BME280;51369;49.862;9.908;2022-12-18T04:39:19;99712.38;;;-9.60;74.99
64876;BME280;51369;49.862;9.908;2022-12-18T04:41:46;99711.31;;;-9.64;74.75
64876;BME280;51369;49.862;9.908;2022-12-18T04:44:13;99724.28;;;-9.65;74.68
64876;BME280;51369;49.862;9.908;2022-12-18T04:46:38;99731.13;;;-9.67;75.00
64876;BME280;51369;49.862;9.908;2022-12-18T04:49:03;99734.66;;;-9.67;74.94
64876;BME280;51369;49.862;9.908;2022-12-18T04:51:29;99735.72;;;-9.63;75.45
64876;BME280;51369;49.862;9.908;2022-12-18T04:53:54;99727.25;;;-9.59;75.38
64876;BME280;51369;49.862;9.908;2022-12-18T04:56:20;99728.25;;;-9.57;75.52
64876;BME280;51369;49.862;9.908;2022-12-18T04:58:45;99726.53;;;-9.57;75.29
64876;BME280;51369;49.862;9.908;2022-12-18T05:01:12;99722.03;;;-9.59;75.30
64876;BME280;51369;49.862;9.908;2022-12-18T05:03:38;99726.34;;;-9.60;75.31
64876;BME280;51369;49.862;9.908;2022-12-18T05:06:05;99719.22;;;-9.62;74.93
64876;BME280;51369;49.862;9.908;2022-12-18T05:08:31;99721.69;;;-9.65;74.93
64876;BME280;51369;49.862;9.908;2022-12-18T05:11:08;99731.31;;;-9.64;75.07
64876;BME280;51369;49.862;9.908;2022-12-18T05:13:35;99725.09;;;-9.66;74.94
64876;BME280;51369;49.862;9.908;2022-12-18T05:16:01;99726.72;;;-9.68;74.84
64876;BME280;51369;49.862;9.908;2022-12-18T05:18:28;99731.69;;;-9.73;74.53
64876;BME280;51369;49.862;9.908;2022-12-18T05:20:54;99734.03;;;-9.77;74.43
64876;BME280;51369;49.862;9.908;2022-12-18T05:23:21;99752.94;;;-9.81;74.44
64876;BME280;51369;49.862;9.908;2022-12-18T05:25:52;99752.69;;;-9.86;74.03
64876;BME280;51369;49.862;9.908;2022-12-18T05:28:18;99745.47;;;-9.90;74.36
64876;BME280;51369;49.862;9.908;2022-12-18T05:30:53;99750.50;;;-9.93;74.77
64876;BME280;51369;49.862;9.908;2022-12-18T05:33:20;99743.38;;;-9.96;74.47
64876;BME280;51369;49.862;9.908;2022-12-18T05:35:53;99738.06;;;-9.97;74.63
64876;BME280;51369;49.862;9.908;2022-12-18T05:38:20;99745.91;;;-9.97;74.91
64876;BME280;51369;49.862;9.908;2022-12-18T05:40:47;99753.75;;;-9.97;74.53
64876;BME280;51369;49.862;9.908;2022-12-18T05:43:13;99745.91;;;-9.97;74.82
64876;BME280;51369;49.862;9.908;2022-12-18T05:45:38;99752.84;;;-9.98;74.64
64876;BME280;51369;49.862;9.908;2022-12-18T05:48:05;99747.53;;;-9.99;74.89
64876;BME280;51369;49.862;9.908;2022-12-18T05:50:34;99748.44;;;-9.99;75.35
64876;BME280;51369;49.862;9.908;2022-12-18T05:53:00;99748.44;;;-9.99;75.49
64876;BME280;51369;49.862;9.908;2022-12-18T05:55:26;99754.47;;;-10.00;75.17
64876;BME280;51369;49.862;9.908;2022-12-18T05:57:51;99758.88;;;-9.99;74.94
64876;BME280;51369;49.862;9.908;2022-12-18T06:00:16;99758.88;;;-9.99;75.11
64876;BME280;51369;49.862;9.908;2022-12-18T06:02:42;99774.56;;;-9.99;75.20
64876;BME280;51369;49.862;9.908;2022-12-18T06:05:11;99768.53;;;-9.98;75.08
64876;BME280;51369;49.862;9.908;2022-12-18T06:07:36;99778.16;;;-9.97;75.53
64876;BME280;51369;49.862;9.908;2022-12-18T06:10:02;99773.84;;;-9.96;75.26
64876;BME280;51369;49.862;9.908;2022-12-18T06:12:27;99789.59;;;-9.95;75.55
64876;BME280;51369;49.862;9.908;2022-12-18T06:14:53;99778.44;;;-9.92;75.06
64876;BME280;51369;49.862;9.908;2022-12-18T06:17:18;99796.00;;;-9.90;75.43
64876;BME280;51369;49.862;9.908;2022-12-18T06:19:43;99783.94;;;-9.88;75.38
64876;BME280;51369;49.862;9.908;2022-12-18T06:22:09;99791.16;;;-9.83;75.52
64876;BME280;51369;49.862;9.908;2022-12-18T06:24:34;99794.84;;;-9.80;75.15
64876;BME280;51369;49.862;9.908;2022-12-18T06:26:59;99795.94;;;-9.76;75.51
64876;BME280;51369;49.862;9.908;2022-12-18T06:29:25;99798.72;;;-9.73;75.54
64876;BME280;51369;49.862;9.908;2022-12-18T06:31:50;99793.06;;;-9.66;75.68
64876;BME280;51369;49.862;9.908;2022-12-18T06:34:15;99799.63;;;-9.58;75.83
64876;BME280;51369;49.862;9.908;2022-12-18T06:36:41;99805.41;;;-9.49;76.44
64876;BME280;51369;49.862;9.908;2022-12-18T06:39:06;99793.84;;;-9.38;77.02
64876;BME280;51369;49.862;9.908;2022-12-18T06:41:31;99787.44;;;-9.28;77.02
64876;BME280;51369;49.862;9.908;2022-12-18T06:43:57;99789.94;;;-9.15;76.97
64876;BME280;51369;49.862;9.908;2022-12-18T06:46:22;99794.97;;;-9.03;76.99
64876;BME280;51369;49.862;9.908;2022-12-18T06:48:49;99790.53;;;-8.90;77.20
64876;BME280;51369;49.862;9.908;2022-12-18T06:51:22;99799.06;;;-8.77;77.24
64876;BME280;51369;49.862;9.908;2022-12-18T06:53:48;99790.06;;;-8.66;77.35
64876;BME280;51369;49.862;9.908;2022-12-18T06:56:14;99789.66;;;-8.58;77.58
64876;BME280;51369;49.862;9.908;2022-12-18T06:58:39;99788.44;;;-8.48;77.56
64876;BME280;51369;49.862;9.908;2022-12-18T07:01:08;99784.44;;;-8.41;77.34
64876;BME280;51369;49.862;9.908;2022-12-18T07:03:34;99794.44;;;-8.34;77.79
64876;BME280;51369;49.862;9.908;2022-12-18T07:05:59;99800.78;;;-8.29;77.76
64876;BME280;51369;49.862;9.908;2022-12-18T07:08:24;99796.69;;;-8.24;77.38
64876;BME280;51369;49.862;9.908;2022-12-18T07:10:50;99803.09;;;-8.19;77.37
64876;BME280;51369;49.862;9.908;2022-12-18T07:13:16;99801.59;;;-8.14;77.35
64876;BME280;51369;49.862;9.908;2022-12-18T07:15:42;99808.91;;;-8.08;77.90
64876;BME280;51369;49.862;9.908;2022-12-18T07:18:08;99811.75;;;-8.04;77.80
64876;BME280;51369;49.862;9.908;2022-12-18T07:20:33;99813.81;;;-7.98;77.95
64876;BME280;51369;49.862;9.908;2022-12-18T07:22:58;99805.38;;;-7.93;77.70
64876;BME280;51369;49.862;9.908;2022-12-18T07:25:26;99803.97;;;-7.86;78.15
64876;BME280;51369;49.862;9.908;2022-12-18T07:27:52;99808.63;;;-7.80;77.92
64876;BME280;51369;49.862;9.908;2022-12-18T07:30:17;99801.09;;;-7.74;77.76
64876;BME280;51369;49.862;9.908;2022-12-18T07:32:42;99812.78;;;-7.68;77.63
64876;BME280;51369;49.862;9.908;2022-12-18T07:35:08;99808.84;;;-7.60;77.66
64876;BME280;51369;49.862;9.908;2022-12-18T07:37:33;99823.19;;;-7.53;78.09
64876;BME280;51369;49.862;9.908;2022-12-18T07:39:58;99820.03;;;-7.46;78.07
64876;BME280;51369;49.862;9.908;2022-12-18T07:42:24;99820.34;;;-7.40;77.76
64876;BME280;51369;49.862;9.908;2022-12-18T07:45:01;99832.16;;;-7.32;78.00
64876;BME280;51369;49.862;9.908;2022-12-18T07:47:28;99829.09;;;-7.23;78.41
64876;BME280;51369;49.862;9.908;2022-12-18T07:49:56;99821.53;;;-7.17;77.67
64876;BME280;51369;49.862;9.908;2022-12-18T07:52:21;99837.72;;;-7.08;77.67
64876;BME280;51369;49.862;9.908;2022-12-18T07:54:47;99833.69;;;-7.01;78.33
64876;BME280;51369;49.862;9.908;2022-12-18T07:57:15;99834.09;;;-6.92;78.10
64876;BME280;51369;49.862;9.908;2022-12-18T07:59:41;99834.47;;;-6.84;78.88
64876;BME280;51369;49.862;9.908;2022-12-18T08:02:06;99840.94;;;-6.78;78.13
64876;BME280;51369;49.862;9.908;2022-12-18T08:04:32;99835.16;;;-6.71;78.33
64876;BME280;51369;49.862;9.908;2022-12-18T08:06:57;99829.38;;;-6.64;78.29
64876;BME280;51369;49.862;9.908;2022-12-18T08:09:22;99832.38;;;-6.56;78.53
64876;BME280;51369;49.862;9.908;2022-12-18T08:11:48;99835.28;;;-6.50;78.06
64876;BME280;51369;49.862;9.908;2022-12-18T08:14:13;99826.78;;;-6.44;77.99
64876;BME280;51369;49.862;9.908;2022-12-18T08:16:39;99839.41;;;-6.37;78.01
64876;BME280;51369;49.862;9.908;2022-12-18T08:19:05;99838.84;;;-6.30;78.03
64876;BME280;51369;49.862;9.908;2022-12-18T08:21:31;99846.22;;;-6.23;78.38
64876;BME280;51369;49.862;9.908;2022-12-18T08:23:59;99837.78;;;-6.16;77.91
64876;BME280;51369;49.862;9.908;2022-12-18T08:26:26;99841.59;;;-6.09;78.80
64876;BME280;51369;49.862;9.908;2022-12-18T08:28:54;99834.88;;;-6.03;78.57
64876;BME280;51369;49.862;9.908;2022-12-18T08:31:20;99850.19;;;-5.94;78.30
64876;BME280;51369;49.862;9.908;2022-12-18T08:33:48;99847.81;;;-5.88;78.76
64876;BME280;51369;49.862;9.908;2022-12-18T08:36:14;99840.19;;;-5.82;78.25
64876;BME280;51369;49.862;9.908;2022-12-18T08:38:39;99837.91;;;-5.74;78.41
64876;BME280;51369;49.862;9.908;2022-12-18T08:41:07;99826.75;;;-5.69;77.74
64876;BME280;51369;49.862;9.908;2022-12-18T08:43:33;99821.84;;;-5.61;77.47
64876;BME280;51369;49.862;9.908;2022-12-18T08:46:18;99823.00;;;-5.54;78.15
64876;BME280;51369;49.862;9.908;2022-12-18T08:48:43;99819.75;;;-5.49;78.14
64876;BME280;51369;49.862;9.908;2022-12-18T08:51:09;99822.63;;;-5.43;77.81
64876;BME280;51369;49.862;9.908;2022-12-18T08:53:36;99815.84;;;-5.38;77.25
64876;BME280;51369;49.862;9.908;2022-12-18T08:56:02;99814.38;;;-5.31;77.16
64876;BME280;51369;49.862;9.908;2022-12-18T08:58:28;99826.06;;;-5.25;77.32
64876;BME280;51369;49.862;9.908;2022-12-18T09:00:54;99810.47;;;-5.20;77.90
64876;BME280;51369;49.862;9.908;2022-12-18T09:03:19;99805.41;;;-5.14;78.03
64876;BME280;51369;49.862;9.908;2022-12-18T09:05:48;99803.88;;;-5.09;77.23
64876;BME280;51369;49.862;9.908;2022-12-18T09:08:13;99810.31;;;-5.02;77.56
64876;BME280;51369;49.862;9.908;2022-12-18T09:10:46;99814.03;;;-4.97;77.44
64876;BME280;51369;49.862;9.908;2022-12-18T09:13:12;99812.59;;;-4.89;77.59
64876;BME280;51369;49.862;9.908;2022-12-18T09:15:49;99814.53;;;-4.85;78.29
64876;BME280;51369;49.862;9.908;2022-12-18T09:18:16;99810.34;;;-4.80;77.30
64876;BME280;51369;49.862;9.908;2022-12-18T09:20:42;99807.91;;;-4.75;78.12
64876;BME280;51369;49.862;9.908;2022-12-18T09:23:08;99810.78;;;-4.69;76.96
64876;BME280;51369;49.862;9.908;2022-12-18T09:25:34;99811.81;;;-4.66;77.53
64876;BME280;51369;49.862;9.908;2022-12-18T09:28:06;99807.56;;;-4.62;76.97
64876;BME280;51369;49.862;9.908;2022-12-18T09:30:32;99814.75;;;-4.58;77.01
64876;BME280;51369;49.862;9.908;2022-12-18T09:32:59;99805.22;;;-4.54;77.32
64876;BME280;51369;49.862;9.908;2022-12-18T09:35:25;99799.25;;;-4.50;76.45
64876;BME280;51369;49.862;9.908;2022-12-18T09:37:50;99787.91;;;-4.48;77.34
64876;BME280;51369;49.862;9.908;2022-12-18T09:40:22;99788.03;;;-4.45;76.24
64876;BME280;51369;49.862;9.908;2022-12-18T09:42:53;99777.69;;;-4.40;77.11
64876;BME280;51369;49.862;9.908;2022-12-18T09:45:19;99779.59;;;-4.36;76.12
64876;BME280;51369;49.862;9.908;2022-12-18T09:47:47;99781.50;;;-4.32;76.50
64876;BME280;51369;49.862;9.908;2022-12-18T09:50:30;99785.22;;;-4.27;76.37
64876;BME280;51369;49.862;9.908;2022-12-18T09:52:59;99789.81;;;-4.21;76.26
64876;BME280;51369;49.862;9.908;2022-12-18T09:55:37;99797.91;;;-4.17;76.34
64876;BME280;51369;49.862;9.908;2022-12-18T09:58:14;99790.19;;;-4.12;76.58
64876;BME280;51369;49.862;9.908;2022-12-18T10:00:41;99793.84;;;-4.09;76.18
64876;BME280;51369;49.862;9.908;2022-12-18T10:03:12;99799.22;;;-4.06;76.23
64876;BME280;51369;49.862;9.908;2022-12-18T10:22:11;99794.19;;;-3.76;76.23
64876;BME280;51369;49.862;9.908;2022-12-18T10:24:48;99796.16;;;-3.70;75.92
64876;BME280;51369;49.862;9.908;2022-12-18T10:27:23;99784.03;;;-3.65;75.76
64876;BME280;51369;49.862;9.908;2022-12-18T10:29:49;99779.84;;;-3.58;76.53
64876;BME280;51369;49.862;9.908;2022-12-18T10:32:21;99779.19;;;-3.53;75.76
64876;BME280;51369;49.862;9.908;2022-12-18T10:34:49;99776.78;;;-3.45;75.83
64876;BME280;51369;49.862;9.908;2022-12-18T10:37:19;99774.28;;;-3.41;75.75
64876;BME280;51369;49.862;9.908;2022-12-18T10:39:45;99765.63;;;-3.37;76.00
64876;BME280;51369;49.862;9.908;2022-12-18T10:42:17;99774.59;;;-3.32;75.63
64876;BME280;51369;49.862;9.908;2022-12-18T10:44:42;99772.97;;;-3.28;75.61
64876;BME280;51369;49.862;9.908;2022-12-18T10:47:14;99767.78;;;-3.25;75.95
64876;BME280;51369;49.862;9.908;2022-12-18T10:49:52;99767.97;;;-3.20;75.70
64876;BME280;51369;49.862;9.908;2022-12-18T10:52:25;99766.38;;;-3.15;75.42
64876;BME280;51369;49.862;9.908;2022-12-18T10:55:03;99772.69;;;-3.10;75.23
64876;BME280;51369;49.862;9.908;2022-12-18T10:57:37;99776.41;;;-3.05;76.05
64876;BME280;51369;49.862;9.908;2022-12-18T11:00:29;99776.50;;;-3.02;76.08
64876;BME280;51369;49.862;9.908;2022-12-18T11:02:55;99771.41;;;-2.96;75.96
64876;BME280;51369;49.862;9.908;2022-12-18T11:07:51;99764.63;;;-2.88;75.74
64876;BME280;51369;49.862;9.908;2022-12-18T11:10:22;99760.31;;;-2.86;75.56
64876;BME280;51369;49.862;9.908;2022-12-18T11:12:48;99761.31;;;-2.82;75.09
64876;BME280;51369;49.862;9.908;2022-12-18T11:15:21;99748.13;;;-2.81;75.08
64876;BME280;51369;49.862;9.908;2022-12-18T11:17:49;99743.84;;;-2.77;75.36
64876;BME280;51369;49.862;9.908;2022-12-18T11:20:36;99734.22;;;-2.75;75.72
64876;BME280;51369;49.862;9.908;2022-12-18T11:23:04;99726.44;;;-2.71;75.63
64876;BME280;51369;49.862;9.908;2022-12-18T11:25:32;99712.41;;;-2.68;75.57
64876;BME280;51369;49.862;9.908;2022-12-18T11:28:00;99706.31;;;-2.66;75.27
64876;BME280;51369;49.862;9.908;2022-12-18T11:30:34;99716.16;;;-2.62;75.70
64876;BME280;51369;49.862;9.908;2022-12-18T11:33:16;99715.38;;;-2.57;75.65
64876;BME280;51369;49.862;9.908;2022-12-18T11:38:34;99705.94;;;-2.49;75.33
64876;BME280;51369;49.862;9.908;2022-12-18T11:41:13;99713.16;;;-2.44;75.88
64876;BME280;51369;49.862;9.908;2022-12-18T11:43:47;99699.22;;;-2.38;75.70
64876;BME280;51369;49.862;9.908;2022-12-18T11:46:23;99704.75;;;-2.31;75.87
64876;BME280;51369;49.862;9.908;2022-12-18T11:49:06;99726.97;;;-2.24;76.12
64876;BME280;51369;49.862;9.908;2022-12-18T11:51:51;99727.13;;;-2.19;76.06
64876;BME280;51369;49.862;9.908;2022-12-18T11:54:19;99725.53;;;-2.13;75.84
64876;BME280;51369;49.862;9.908;2022-12-18T11:56:55;99719.50;;;-2.09;75.85
64876;BME280;51369;49.862;9.908;2022-12-18T12:08:12;99688.09;;;-1.97;74.84
64876;BME280;51369;49.862;9.908;2022-12-18T12:26:54;99649.25;;;-1.63;75.23
64876;BME280;51369;49.862;9.908;2022-12-18T12:29:50;99660.81;;;-1.59;75.09
64876;BME280;51369;49.862;9.908;2022-12-18T12:32:25;99664.47;;;-1.54;74.68
64876;BME280;51369;49.862;9.908;2022-12-18T12:35:22;99673.34;;;-1.52;75.27
64876;BME280;51369;49.862;9.908;2022-12-18T12:38:13;99682.31;;;-1.47;74.92
64876;BME280;51369;49.862;9.908;2022-12-18T12:40:48;99694.78;;;-1.43;75.17
64876;BME280;51369;49.862;9.908;2022-12-18T12:43:35;99686.88;;;-1.42;75.06
64876;BME280;51369;49.862;9.908;2022-12-18T12:46:05;99689.56;;;-1.40;74.86
64876;BME280;51369;49.862;9.908;2022-12-18T12:48:44;99681.66;;;-1.39;74.98
64876;BME280;51369;49.862;9.908;2022-12-18T12:53:43;99657.94;;;-1.34;74.99
64876;BME280;51369;49.862;9.908;2022-12-18T12:56:11;99658.84;;;-1.34;74.77
64876;BME280;51369;49.862;9.908;2022-12-18T12:58:43;99658.00;;;-1.31;74.42
64876;BME280;51369;49.862;9.908;2022-12-18T13:06:45;99633.34;;;-1.28;74.41
64876;BME280;51369;49.862;9.908;2022-12-18T13:09:13;99642.22;;;-1.26;74.38
64876;BME280;51369;49.862;9.908;2022-12-18T13:11:41;99650.19;;;-1.26;74.52
64876;BME280;51369;49.862;9.908;2022-12-18T13:14:32;99645.78;;;-1.26;74.26
64876;BME280;51369;49.862;9.908;2022-12-18T13:17:27;99642.25;;;-1.25;74.49
64876;BME280;51369;49.862;9.908;2022-12-18T13:20:07;99644.97;;;-1.23;74.41
64876;BME280;51369;49.862;9.908;2022-12-18T13:22:36;99647.63;;;-1.22;74.63
64876;BME280;51369;49.862;9.908;2022-12-18T13:25:04;99647.69;;;-1.20;74.54
64876;BME280;51369;49.862;9.908;2022-12-18T13:28:15;99644.16;;;-1.19;74.25
64876;BME280;51369;49.862;9.908;2022-12-18T13:30:44;99642.44;;;-1.17;74.56
64876;BME280;51369;49.862;9.908;2022-12-18T13:38:36;99646.94;;;-1.15;74.68
64876;BME280;51369;49.862;9.908;2022-12-18T13:41:21;99624.88;;;-1.14;74.86
64876;BME280;51369;49.862;9.908;2022-12-18T13:43:55;99614.28;;;-1.14;74.49
64876;BME280;51369;49.862;9.908;2022-12-18T13:46:28;99610.78;;;-1.11;74.41
64876;BME280;51369;49.862;9.908;2022-12-18T13:49:04;99609.88;;;-1.13;74.70
64876;BME280;51369;49.862;9.908;2022-12-18T13:51:43;99605.53;;;-1.10;74.37
64876;BME280;51369;49.862;9.908;2022-12-18T13:56:47;99602.88;;;-1.10;74.48
64876;BME280;51369;49.862;9.908;2022-12-18T13:59:23;99609.03;;;-1.11;74.15
64876;BME280;51369;49.862;9.908;2022-12-18T14:02:04;99609.91;;;-1.12;74.44
64876;BME280;51369;49.862;9.908;2022-12-18T14:04:33;99616.97;;;-1.12;74.59
64876;BME280;51369;49.862;9.908;2022-12-18T14:07:17;99618.72;;;-1.13;74.06
64876;BME280;51369;49.862;9.908;2022-12-18T14:09:47;99628.41;;;-1.13;74.10
64876;BME280;51369;49.862;9.908;2022-12-18T14:12:16;99632.84;;;-1.12;74.48
64876;BME280;51369;49.862;9.908;2022-12-18T14:15:00;99626.66;;;-1.13;74.05
64876;BME280;51369;49.862;9.908;2022-12-18T14:17:26;99636.38;;;-1.13;74.19
64876;BME280;51369;49.862;9.908;2022-12-18T14:19:51;99631.06;;;-1.13;74.16
64876;BME280;51369;49.862;9.908;2022-12-18T14:22:20;99637.25;;;-1.13;74.22
64876;BME280;51369;49.862;9.908;2022-12-18T14:24:47;99646.09;;;-1.12;74.37
64876;BME280;51369;49.862;9.908;2022-12-18T14:27:29;99650.56;;;-1.11;74.66
64876;BME280;51369;49.862;9.908;2022-12-18T14:29:54;99645.22;;;-1.13;74.47
64876;BME280;51369;49.862;9.908;2022-12-18T14:32:20;99649.66;;;-1.12;74.19
64876;BME280;51369;49.862;9.908;2022-12-18T14:34:51;99643.41;;;-1.14;74.30
64876;BME280;51369;49.862;9.908;2022-12-18T14:37:21;99641.63;;;-1.15;74.38
64876;BME280;51369;49.862;9.908;2022-12-18T14:40:01;99635.41;;;-1.17;74.50
64876;BME280;51369;49.862;9.908;2022-12-18T14:42:36;99631.00;;;-1.16;74.04
64876;BME280;51369;49.862;9.908;2022-12-18T14:47:59;99650.28;;;-1.22;74.76